Terminal Aerodrome Forecast
Issued by NWS Albany, NY

Home | Current Version | Previous Version | Text Only | Print | Product List | Glossary On
Versions: 1 2 3 4 5 6 7 8 9 10 11 12 13 14 15 16 17 18 19 20 21 22 23
000
FTUS41 KALY 020500
TAFGFL
TAF
KGFL 020540Z 0206/0306 VRB03KT P6SM SCT025 OVC040
      TEMPO 0206/0210 BKN025 OVC040
     FM021000 00000KT 3SM BR SCT015 BKN025 OVC035
     FM021400 VRB03KT P6SM OVC025
     FM021700 10004KT P6SM SCT025 OVC050
     FM022000 VRB03KT P6SM BKN050=

USA.gov is the U.S. government's official web portal to all federal, state and local government web resources and services.